sensor_id;sensor_type;location;lat;lon;timestamp;P1;durP1;ratioP1;P2;durP2;ratioP2
14933;SDS011;7560;51.364;12.384;2023-06-10T00:03:32;8.13;;;4.18;;
14933;SDS011;7560;51.364;12.384;2023-06-10T00:08:34;9.90;;;4.22;;
14933;SDS011;7560;51.364;12.384;2023-06-10T00:13:36;6.90;;;4.05;;
14933;SDS011;7560;51.364;12.384;2023-06-10T00:18:38;7.03;;;4.05;;
14933;SDS011;7560;51.364;12.384;2023-06-10T00:23:40;6.43;;;4.25;;
14933;SDS011;7560;51.364;12.384;2023-06-10T00:28:42;8.15;;;4.50;;
14933;SDS011;7560;51.364;12.384;2023-06-10T00:33:46;5.60;;;4.43;;
14933;SDS011;7560;51.364;12.384;2023-06-10T00:38:47;6.13;;;3.90;;
14933;SDS011;7560;51.364;12.384;2023-06-10T00:43:49;6.65;;;4.05;;
14933;SDS011;7560;51.364;12.384;2023-06-10T00:48:51;6.43;;;4.22;;
14933;SDS011;7560;51.364;12.384;2023-06-10T00:53:53;7.70;;;4.40;;
14933;SDS011;7560;51.364;12.384;2023-06-10T00:58:55;5.55;;;3.90;;
14933;SDS011;7560;51.364;12.384;2023-06-10T01:03:57;9.70;;;4.53;;
14933;SDS011;7560;51.364;12.384;2023-06-10T01:09:08;7.10;;;4.22;;
14933;SDS011;7560;51.364;12.384;2023-06-10T01:14:33;6.63;;;4.07;;
14933;SDS011;7560;51.364;12.384;2023-06-10T01:19:35;8.27;;;4.60;;
14933;SDS011;7560;51.364;12.384;2023-06-10T01:24:37;9.23;;;4.85;;
14933;SDS011;7560;51.364;12.384;2023-06-10T01:29:43;7.60;;;5.07;;
14933;SDS011;7560;51.364;12.384;2023-06-10T01:34:47;8.25;;;5.18;;
14933;SDS011;7560;51.364;12.384;2023-06-10T01:39:50;9.18;;;5.88;;
14933;SDS011;7560;51.364;12.384;2023-06-10T01:44:52;12.55;;;5.97;;
14933;SDS011;7560;51.364;12.384;2023-06-10T01:49:54;11.85;;;6.93;;
14933;SDS011;7560;51.364;12.384;2023-06-10T01:54:56;11.85;;;7.50;;
14933;SDS011;7560;51.364;12.384;2023-06-10T01:59:58;10.00;;;6.82;;
14933;SDS011;7560;51.364;12.384;2023-06-10T02:04:59;10.90;;;7.20;;
14933;SDS011;7560;51.364;12.384;2023-06-10T02:10:02;13.02;;;6.85;;
14933;SDS011;7560;51.364;12.384;2023-06-10T02:15:04;9.98;;;6.35;;
14933;SDS011;7560;51.364;12.384;2023-06-10T02:20:06;11.90;;;6.47;;
14933;SDS011;7560;51.364;12.384;2023-06-10T02:25:12;11.43;;;6.38;;
14933;SDS011;7560;51.364;12.384;2023-06-10T02:30:14;10.18;;;6.82;;
14933;SDS011;7560;51.364;12.384;2023-06-10T02:35:17;8.75;;;6.85;;
14933;SDS011;7560;51.364;12.384;2023-06-10T02:40:18;8.07;;;6.70;;
14933;SDS011;7560;51.364;12.384;2023-06-10T02:45:21;8.77;;;6.60;;
14933;SDS011;7560;51.364;12.384;2023-06-10T02:50:22;11.48;;;6.80;;
14933;SDS011;7560;51.364;12.384;2023-06-10T02:55:24;9.20;;;6.65;;
14933;SDS011;7560;51.364;12.384;2023-06-10T03:00:27;8.60;;;6.32;;
14933;SDS011;7560;51.364;12.384;2023-06-10T03:05:29;11.68;;;6.43;;
14933;SDS011;7560;51.364;12.384;2023-06-10T03:10:31;10.45;;;6.40;;
14933;SDS011;7560;51.364;12.384;2023-06-10T03:15:34;10.07;;;6.80;;
14933;SDS011;7560;51.364;12.384;2023-06-10T03:20:37;10.18;;;6.55;;
14933;SDS011;7560;51.364;12.384;2023-06-10T03:25:40;9.70;;;6.72;;
14933;SDS011;7560;51.364;12.384;2023-06-10T03:30:42;10.60;;;6.57;;
14933;SDS011;7560;51.364;12.384;2023-06-10T03:35:44;9.23;;;5.97;;
14933;SDS011;7560;51.364;12.384;2023-06-10T03:40:46;8.73;;;6.40;;
14933;SDS011;7560;51.364;12.384;2023-06-10T03:45:48;7.72;;;6.03;;
14933;SDS011;7560;51.364;12.384;2023-06-10T03:50:50;8.40;;;6.25;;
14933;SDS011;7560;51.364;12.384;2023-06-10T03:55:53;8.77;;;6.38;;
14933;SDS011;7560;51.364;12.384;2023-06-10T04:00:55;10.63;;;6.60;;
14933;SDS011;7560;51.364;12.384;2023-06-10T04:05:56;12.23;;;6.60;;
14933;SDS011;7560;51.364;12.384;2023-06-10T04:10:59;8.73;;;6.40;;
14933;SDS011;7560;51.364;12.384;2023-06-10T04:16:01;9.60;;;7.03;;
14933;SDS011;7560;51.364;12.384;2023-06-10T04:21:03;12.05;;;6.60;;
14933;SDS011;7560;51.364;12.384;2023-06-10T04:26:05;8.38;;;6.90;;
14933;SDS011;7560;51.364;12.384;2023-06-10T04:31:07;10.38;;;6.78;;
14933;SDS011;7560;51.364;12.384;2023-06-10T04:36:09;9.45;;;6.95;;
14933;SDS011;7560;51.364;12.384;2023-06-10T04:41:10;10.80;;;7.20;;
14933;SDS011;7560;51.364;12.384;2023-06-10T04:46:12;10.73;;;7.10;;
14933;SDS011;7560;51.364;12.384;2023-06-10T04:51:14;12.07;;;6.90;;
14933;SDS011;7560;51.364;12.384;2023-06-10T04:56:16;9.73;;;7.03;;
14933;SDS011;7560;51.364;12.384;2023-06-10T05:01:18;12.57;;;7.72;;
14933;SDS011;7560;51.364;12.384;2023-06-10T05:06:20;10.18;;;7.50;;
14933;SDS011;7560;51.364;12.384;2023-06-10T05:11:22;13.25;;;8.20;;
14933;SDS011;7560;51.364;12.384;2023-06-10T05:16:24;10.98;;;7.07;;
14933;SDS011;7560;51.364;12.384;2023-06-10T05:21:25;8.25;;;7.05;;
14933;SDS011;7560;51.364;12.384;2023-06-10T05:26:27;9.27;;;7.65;;
14933;SDS011;7560;51.364;12.384;2023-06-10T05:31:30;10.52;;;7.93;;
14933;SDS011;7560;51.364;12.384;2023-06-10T05:36:32;11.10;;;8.25;;
14933;SDS011;7560;51.364;12.384;2023-06-10T05:41:33;11.65;;;8.10;;
14933;SDS011;7560;51.364;12.384;2023-06-10T05:46:35;16.67;;;8.15;;
14933;SDS011;7560;51.364;12.384;2023-06-10T05:51:37;15.18;;;8.55;;
14933;SDS011;7560;51.364;12.384;2023-06-10T05:56:39;11.23;;;8.02;;
14933;SDS011;7560;51.364;12.384;2023-06-10T06:01:41;12.80;;;8.15;;
14933;SDS011;7560;51.364;12.384;2023-06-10T06:06:43;11.63;;;8.50;;
14933;SDS011;7560;51.364;12.384;2023-06-10T06:11:45;10.30;;;8.63;;
14933;SDS011;7560;51.364;12.384;2023-06-10T06:16:46;11.50;;;8.40;;
14933;SDS011;7560;51.364;12.384;2023-06-10T06:21:48;14.82;;;8.38;;
14933;SDS011;7560;51.364;12.384;2023-06-10T06:26:50;12.57;;;8.45;;
14933;SDS011;7560;51.364;12.384;2023-06-10T06:31:52;13.57;;;9.48;;
14933;SDS011;7560;51.364;12.384;2023-06-10T06:36:54;13.25;;;9.05;;
14933;SDS011;7560;51.364;12.384;2023-06-10T06:41:55;12.70;;;9.45;;
14933;SDS011;7560;51.364;12.384;2023-06-10T06:46:57;14.50;;;9.32;;
14933;SDS011;7560;51.364;12.384;2023-06-10T06:51:59;13.90;;;9.50;;
14933;SDS011;7560;51.364;12.384;2023-06-10T06:57:01;14.57;;;9.15;;
14933;SDS011;7560;51.364;12.384;2023-06-10T07:02:03;15.27;;;9.70;;
14933;SDS011;7560;51.364;12.384;2023-06-10T07:07:06;13.20;;;9.93;;
14933;SDS011;7560;51.364;12.384;2023-06-10T07:12:09;12.85;;;10.32;;
14933;SDS011;7560;51.364;12.384;2023-06-10T07:17:11;15.65;;;10.13;;
14933;SDS011;7560;51.364;12.384;2023-06-10T07:22:13;13.95;;;9.82;;
14933;SDS011;7560;51.364;12.384;2023-06-10T07:27:15;11.60;;;10.15;;
14933;SDS011;7560;51.364;12.384;2023-06-10T07:32:17;13.32;;;9.88;;
14933;SDS011;7560;51.364;12.384;2023-06-10T07:37:21;13.25;;;9.68;;
14933;SDS011;7560;51.364;12.384;2023-06-10T07:42:23;13.23;;;10.00;;
14933;SDS011;7560;51.364;12.384;2023-06-10T07:47:25;12.10;;;9.88;;
14933;SDS011;7560;51.364;12.384;2023-06-10T07:52:27;13.68;;;10.00;;
14933;SDS011;7560;51.364;12.384;2023-06-10T07:57:29;13.68;;;9.90;;
14933;SDS011;7560;51.364;12.384;2023-06-10T08:02:35;12.40;;;9.45;;
14933;SDS011;7560;51.364;12.384;2023-06-10T08:07:39;12.38;;;10.95;;
14933;SDS011;7560;51.364;12.384;2023-06-10T08:12:42;12.43;;;9.80;;
14933;SDS011;7560;51.364;12.384;2023-06-10T08:17:44;11.18;;;9.60;;
14933;SDS011;7560;51.364;12.384;2023-06-10T08:22:46;14.57;;;10.20;;
14933;SDS011;7560;51.364;12.384;2023-06-10T08:27:48;13.80;;;10.43;;
14933;SDS011;7560;51.364;12.384;2023-06-10T08:32:50;11.88;;;9.40;;
14933;SDS011;7560;51.364;12.384;2023-06-10T08:37:53;12.98;;;9.57;;
14933;SDS011;7560;51.364;12.384;2023-06-10T08:43:05;15.52;;;10.07;;
14933;SDS011;7560;51.364;12.384;2023-06-10T08:48:10;12.45;;;9.45;;
14933;SDS011;7560;51.364;12.384;2023-06-10T08:53:17;13.48;;;10.15;;
14933;SDS011;7560;51.364;12.384;2023-06-10T08:58:20;12.25;;;9.52;;
14933;SDS011;7560;51.364;12.384;2023-06-10T09:03:23;12.45;;;9.30;;
14933;SDS011;7560;51.364;12.384;2023-06-10T09:08:26;11.45;;;9.25;;
14933;SDS011;7560;51.364;12.384;2023-06-10T09:13:28;16.45;;;9.65;;
14933;SDS011;7560;51.364;12.384;2023-06-10T09:18:30;12.82;;;9.43;;
14933;SDS011;7560;51.364;12.384;2023-06-10T09:23:32;10.45;;;8.85;;
14933;SDS011;7560;51.364;12.384;2023-06-10T09:28:35;10.25;;;9.05;;
14933;SDS011;7560;51.364;12.384;2023-06-10T09:33:37;10.73;;;9.63;;
14933;SDS011;7560;51.364;12.384;2023-06-10T09:38:40;11.05;;;9.18;;
14933;SDS011;7560;51.364;12.384;2023-06-10T09:43:43;11.50;;;9.57;;
14933;SDS011;7560;51.364;12.384;2023-06-10T09:48:47;11.32;;;9.15;;
14933;SDS011;7560;51.364;12.384;2023-06-10T09:53:52;13.20;;;9.10;;
14933;SDS011;7560;51.364;12.384;2023-06-10T09:58:55;11.93;;;9.93;;
14933;SDS011;7560;51.364;12.384;2023-06-10T10:03:57;10.35;;;9.30;;
14933;SDS011;7560;51.364;12.384;2023-06-10T10:08:59;11.52;;;9.48;;
14933;SDS011;7560;51.364;12.384;2023-06-10T10:14:01;11.38;;;10.15;;
14933;SDS011;7560;51.364;12.384;2023-06-10T10:19:14;10.15;;;9.15;;
14933;SDS011;7560;51.364;12.384;2023-06-10T10:24:21;10.75;;;9.65;;
14933;SDS011;7560;51.364;12.384;2023-06-10T10:29:29;11.57;;;9.77;;
14933;SDS011;7560;51.364;12.384;2023-06-10T10:34:42;11.90;;;9.48;;
14933;SDS011;7560;51.364;12.384;2023-06-10T10:39:54;12.25;;;10.07;;
14933;SDS011;7560;51.364;12.384;2023-06-10T10:44:56;10.98;;;9.85;;
14933;SDS011;7560;51.364;12.384;2023-06-10T10:49:59;14.93;;;9.63;;
14933;SDS011;7560;51.364;12.384;2023-06-10T10:55:01;11.23;;;9.90;;
14933;SDS011;7560;51.364;12.384;2023-06-10T11:00:13;10.55;;;9.50;;
14933;SDS011;7560;51.364;12.384;2023-06-10T11:05:36;10.88;;;9.68;;
14933;SDS011;7560;51.364;12.384;2023-06-10T11:10:40;10.82;;;9.73;;
14933;SDS011;7560;51.364;12.384;2023-06-10T11:15:52;10.68;;;9.57;;
14933;SDS011;7560;51.364;12.384;2023-06-10T11:20:58;11.10;;;10.00;;
14933;SDS011;7560;51.364;12.384;2023-06-10T11:31:33;10.73;;;9.73;;
14933;SDS011;7560;51.364;12.384;2023-06-10T11:36:41;10.70;;;9.60;;
14933;SDS011;7560;51.364;12.384;2023-06-10T11:41:45;11.48;;;10.15;;
14933;SDS011;7560;51.364;12.384;2023-06-10T11:46:47;9.85;;;8.88;;
14933;SDS011;7560;51.364;12.384;2023-06-10T11:51:50;9.95;;;9.05;;
14933;SDS011;7560;51.364;12.384;2023-06-10T11:56:57;9.75;;;8.77;;
14933;SDS011;7560;51.364;12.384;2023-06-10T12:02:00;12.63;;;9.20;;
14933;SDS011;7560;51.364;12.384;2023-06-10T12:07:02;11.80;;;8.73;;
14933;SDS011;7560;51.364;12.384;2023-06-10T12:12:04;8.93;;;7.90;;
14933;SDS011;7560;51.364;12.384;2023-06-10T12:17:07;8.63;;;7.75;;
14933;SDS011;7560;51.364;12.384;2023-06-10T12:22:09;9.05;;;8.20;;
14933;SDS011;7560;51.364;12.384;2023-06-10T12:27:11;8.98;;;7.90;;
14933;SDS011;7560;51.364;12.384;2023-06-10T12:32:13;10.15;;;7.80;;
14933;SDS011;7560;51.364;12.384;2023-06-10T12:37:16;10.00;;;7.28;;
14933;SDS011;7560;51.364;12.384;2023-06-10T12:42:18;10.20;;;7.13;;
14933;SDS011;7560;51.364;12.384;2023-06-10T12:47:29;9.23;;;8.20;;
14933;SDS011;7560;51.364;12.384;2023-06-10T12:52:33;10.48;;;7.57;;
14933;SDS011;7560;51.364;12.384;2023-06-10T12:57:35;16.17;;;8.10;;
14933;SDS011;7560;51.364;12.384;2023-06-10T13:02:37;17.52;;;8.75;;
14933;SDS011;7560;51.364;12.384;2023-06-10T13:07:39;10.85;;;8.38;;
14933;SDS011;7560;51.364;12.384;2023-06-10T13:12:43;10.43;;;7.80;;
14933;SDS011;7560;51.364;12.384;2023-06-10T13:17:50;9.27;;;8.27;;
14933;SDS011;7560;51.364;12.384;2023-06-10T13:22:52;12.02;;;7.88;;
14933;SDS011;7560;51.364;12.384;2023-06-10T13:27:54;9.95;;;8.52;;
14933;SDS011;7560;51.364;12.384;2023-06-10T13:32:56;9.90;;;7.80;;
14933;SDS011;7560;51.364;12.384;2023-06-10T13:37:58;7.53;;;6.72;;
14933;SDS011;7560;51.364;12.384;2023-06-10T13:43:00;8.10;;;6.35;;
14933;SDS011;7560;51.364;12.384;2023-06-10T13:48:02;5.78;;;5.28;;
14933;SDS011;7560;51.364;12.384;2023-06-10T13:53:05;6.25;;;5.30;;
14933;SDS011;7560;51.364;12.384;2023-06-10T13:58:07;6.55;;;5.05;;
14933;SDS011;7560;51.364;12.384;2023-06-10T14:03:09;4.80;;;4.40;;
14933;SDS011;7560;51.364;12.384;2023-06-10T14:08:11;4.78;;;4.38;;
14933;SDS011;7560;51.364;12.384;2023-06-10T14:13:13;4.15;;;3.75;;
14933;SDS011;7560;51.364;12.384;2023-06-10T14:18:14;7.40;;;3.83;;
14933;SDS011;7560;51.364;12.384;2023-06-10T14:23:16;6.55;;;3.75;;
14933;SDS011;7560;51.364;12.384;2023-06-10T14:28:18;3.83;;;3.53;;
14933;SDS011;7560;51.364;12.384;2023-06-10T14:33:20;4.47;;;3.88;;
14933;SDS011;7560;51.364;12.384;2023-06-10T14:38:22;4.03;;;3.58;;
14933;SDS011;7560;51.364;12.384;2023-06-10T14:43:24;5.72;;;3.88;;
14933;SDS011;7560;51.364;12.384;2023-06-10T14:48:26;5.30;;;4.80;;
14933;SDS011;7560;51.364;12.384;2023-06-10T14:53:27;6.10;;;5.25;;
14933;SDS011;7560;51.364;12.384;2023-06-10T14:58:29;6.55;;;5.68;;
14933;SDS011;7560;51.364;12.384;2023-06-10T15:03:31;7.53;;;6.50;;
14933;SDS011;7560;51.364;12.384;2023-06-10T15:08:33;8.10;;;7.30;;
14933;SDS011;7560;51.364;12.384;2023-06-10T15:13:35;9.18;;;7.78;;
14933;SDS011;7560;51.364;12.384;2023-06-10T15:18:36;8.77;;;7.90;;
14933;SDS011;7560;51.364;12.384;2023-06-10T15:23:39;8.43;;;7.47;;
14933;SDS011;7560;51.364;12.384;2023-06-10T15:28:41;9.80;;;7.32;;
14933;SDS011;7560;51.364;12.384;2023-06-10T15:33:42;9.65;;;7.53;;
14933;SDS011;7560;51.364;12.384;2023-06-10T15:38:47;9.35;;;7.20;;
14933;SDS011;7560;51.364;12.384;2023-06-10T15:43:49;9.68;;;7.00;;
14933;SDS011;7560;51.364;12.384;2023-06-10T15:48:51;7.70;;;7.00;;
14933;SDS011;7560;51.364;12.384;2023-06-10T15:53:54;8.18;;;7.15;;
14933;SDS011;7560;51.364;12.384;2023-06-10T15:58:56;8.48;;;6.82;;
14933;SDS011;7560;51.364;12.384;2023-06-10T16:03:58;8.20;;;7.40;;
14933;SDS011;7560;51.364;12.384;2023-06-10T16:09:00;13.45;;;9.43;;
14933;SDS011;7560;51.364;12.384;2023-06-10T16:14:02;10.52;;;7.07;;
14933;SDS011;7560;51.364;12.384;2023-06-10T16:19:04;8.18;;;7.38;;
14933;SDS011;7560;51.364;12.384;2023-06-10T16:24:09;8.07;;;7.35;;
14933;SDS011;7560;51.364;12.384;2023-06-10T16:29:12;8.75;;;7.13;;
14933;SDS011;7560;51.364;12.384;2023-06-10T16:34:14;8.50;;;7.65;;
14933;SDS011;7560;51.364;12.384;2023-06-10T16:39:17;8.35;;;7.53;;
14933;SDS011;7560;51.364;12.384;2023-06-10T16:44:19;9.32;;;8.43;;
14933;SDS011;7560;51.364;12.384;2023-06-10T16:49:21;17.25;;;11.57;;
14933;SDS011;7560;51.364;12.384;2023-06-10T16:54:23;9.77;;;7.57;;
14933;SDS011;7560;51.364;12.384;2023-06-10T16:59:25;10.38;;;7.45;;
14933;SDS011;7560;51.364;12.384;2023-06-10T17:04:27;8.25;;;6.85;;
14933;SDS011;7560;51.364;12.384;2023-06-10T17:09:29;8.18;;;7.13;;
14933;SDS011;7560;51.364;12.384;2023-06-10T17:20:26;8.98;;;7.63;;
14933;SDS011;7560;51.364;12.384;2023-06-10T17:25:30;9.48;;;8.15;;
14933;SDS011;7560;51.364;12.384;2023-06-10T17:30:32;10.50;;;8.18;;
14933;SDS011;7560;51.364;12.384;2023-06-10T17:35:34;8.93;;;8.02;;
14933;SDS011;7560;51.364;12.384;2023-06-10T17:40:36;10.32;;;8.02;;
14933;SDS011;7560;51.364;12.384;2023-06-10T17:45:38;11.98;;;8.07;;
14933;SDS011;7560;51.364;12.384;2023-06-10T17:50:40;11.40;;;9.30;;
14933;SDS011;7560;51.364;12.384;2023-06-10T17:55:42;11.75;;;8.52;;
14933;SDS011;7560;51.364;12.384;2023-06-10T18:00:43;10.35;;;7.82;;
14933;SDS011;7560;51.364;12.384;2023-06-10T18:05:45;11.90;;;8.77;;
14933;SDS011;7560;51.364;12.384;2023-06-10T18:10:47;9.82;;;7.82;;
14933;SDS011;7560;51.364;12.384;2023-06-10T18:15:49;15.48;;;12.20;;
14933;SDS011;7560;51.364;12.384;2023-06-10T18:20:51;10.73;;;8.80;;
14933;SDS011;7560;51.364;12.384;2023-06-10T18:25:53;12.05;;;9.80;;
14933;SDS011;7560;51.364;12.384;2023-06-10T18:30:55;10.00;;;9.00;;
14933;SDS011;7560;51.364;12.384;2023-06-10T18:35:58;10.95;;;9.13;;
14933;SDS011;7560;51.364;12.384;2023-06-10T18:40:59;10.25;;;9.20;;
14933;SDS011;7560;51.364;12.384;2023-06-10T18:46:01;10.23;;;9.10;;
14933;SDS011;7560;51.364;12.384;2023-06-10T18:51:03;11.52;;;9.63;;
14933;SDS011;7560;51.364;12.384;2023-06-10T18:56:05;10.25;;;9.25;;
14933;SDS011;7560;51.364;12.384;2023-06-10T19:01:07;11.35;;;9.80;;
14933;SDS011;7560;51.364;12.384;2023-06-10T19:06:08;11.10;;;9.98;;
14933;SDS011;7560;51.364;12.384;2023-06-10T19:11:10;14.45;;;11.05;;
14933;SDS011;7560;51.364;12.384;2023-06-10T19:16:13;13.25;;;10.20;;
14933;SDS011;7560;51.364;12.384;2023-06-10T19:21:15;11.02;;;9.30;;
14933;SDS011;7560;51.364;12.384;2023-06-10T19:26:18;11.27;;;10.07;;
14933;SDS011;7560;51.364;12.384;2023-06-10T19:31:28;11.50;;;10.40;;
14933;SDS011;7560;51.364;12.384;2023-06-10T19:36:30;11.45;;;10.02;;
14933;SDS011;7560;51.364;12.384;2023-06-10T19:41:32;11.70;;;10.50;;
14933;SDS011;7560;51.364;12.384;2023-06-10T19:46:34;16.25;;;13.80;;
14933;SDS011;7560;51.364;12.384;2023-06-10T19:51:36;14.88;;;10.98;;
14933;SDS011;7560;51.364;12.384;2023-06-10T19:56:37;14.32;;;11.57;;
14933;SDS011;7560;51.364;12.384;2023-06-10T20:01:39;13.10;;;11.32;;
14933;SDS011;7560;51.364;12.384;2023-06-10T20:06:42;14.80;;;11.18;;
14933;SDS011;7560;51.364;12.384;2023-06-10T20:11:44;13.63;;;10.38;;
14933;SDS011;7560;51.364;12.384;2023-06-10T20:16:46;12.43;;;10.95;;
14933;SDS011;7560;51.364;12.384;2023-06-10T20:21:48;12.68;;;10.68;;
14933;SDS011;7560;51.364;12.384;2023-06-10T20:26:50;12.60;;;11.15;;
14933;SDS011;7560;51.364;12.384;2023-06-10T20:31:53;15.68;;;12.95;;
14933;SDS011;7560;51.364;12.384;2023-06-10T20:36:55;13.65;;;12.20;;
14933;SDS011;7560;51.364;12.384;2023-06-10T20:41:58;12.88;;;11.57;;
14933;SDS011;7560;51.364;12.384;2023-06-10T20:47:00;16.08;;;13.10;;
14933;SDS011;7560;51.364;12.384;2023-06-10T20:52:02;13.88;;;11.60;;
14933;SDS011;7560;51.364;12.384;2023-06-10T20:57:04;15.10;;;11.23;;
14933;SDS011;7560;51.364;12.384;2023-06-10T21:02:07;12.95;;;10.48;;
14933;SDS011;7560;51.364;12.384;2023-06-10T21:07:09;14.20;;;11.07;;
14933;SDS011;7560;51.364;12.384;2023-06-10T21:12:12;11.73;;;10.35;;
14933;SDS011;7560;51.364;12.384;2023-06-10T21:17:14;13.45;;;10.77;;
14933;SDS011;7560;51.364;12.384;2023-06-10T21:22:16;12.15;;;9.90;;
14933;SDS011;7560;51.364;12.384;2023-06-10T21:27:18;12.15;;;9.90;;
14933;SDS011;7560;51.364;12.384;2023-06-10T21:32:21;12.23;;;10.35;;
14933;SDS011;7560;51.364;12.384;2023-06-10T21:37:23;11.85;;;9.73;;
14933;SDS011;7560;51.364;12.384;2023-06-10T21:42:25;11.88;;;9.45;;
14933;SDS011;7560;51.364;12.384;2023-06-10T21:47:26;12.05;;;10.20;;
14933;SDS011;7560;51.364;12.384;2023-06-10T21:52:28;13.38;;;10.20;;
14933;SDS011;7560;51.364;12.384;2023-06-10T21:57:30;11.77;;;9.73;;
14933;SDS011;7560;51.364;12.384;2023-06-10T22:02:32;13.23;;;9.40;;
14933;SDS011;7560;51.364;12.384;2023-06-10T22:07:34;13.35;;;9.75;;
14933;SDS011;7560;51.364;12.384;2023-06-10T22:12:36;10.63;;;9.05;;
14933;SDS011;7560;51.364;12.384;2023-06-10T22:17:38;11.00;;;9.23;;
14933;SDS011;7560;51.364;12.384;2023-06-10T22:22:40;13.43;;;9.40;;
14933;SDS011;7560;51.364;12.384;2023-06-10T22:27:42;12.00;;;8.82;;
14933;SDS011;7560;51.364;12.384;2023-06-10T22:32:44;10.95;;;8.45;;
14933;SDS011;7560;51.364;12.384;2023-06-10T22:37:46;10.38;;;8.95;;
14933;SDS011;7560;51.364;12.384;2023-06-10T22:42:47;12.18;;;8.40;;
14933;SDS011;7560;51.364;12.384;2023-06-10T22:47:49;12.30;;;8.98;;
14933;SDS011;7560;51.364;12.384;2023-06-10T22:52:51;9.73;;;8.10;;
14933;SDS011;7560;51.364;12.384;2023-06-10T22:57:53;12.63;;;8.40;;
14933;SDS011;7560;51.364;12.384;2023-06-10T23:02:55;11.80;;;8.40;;
14933;SDS011;7560;51.364;12.384;2023-06-10T23:07:57;12.02;;;8.18;;
14933;SDS011;7560;51.364;12.384;2023-06-10T23:12:59;9.38;;;7.70;;
14933;SDS011;7560;51.364;12.384;2023-06-10T23:18:01;11.57;;;8.30;;
14933;SDS011;7560;51.364;12.384;2023-06-10T23:23:03;10.63;;;8.07;;
14933;SDS011;7560;51.364;12.384;2023-06-10T23:28:05;11.00;;;8.13;;
14933;SDS011;7560;51.364;12.384;2023-06-10T23:33:06;12.15;;;8.02;;
14933;SDS011;7560;51.364;12.384;2023-06-10T23:38:09;10.50;;;8.55;;
14933;SDS011;7560;51.364;12.384;2023-06-10T23:43:11;10.90;;;8.52;;
14933;SDS011;7560;51.364;12.384;2023-06-10T23:48:14;12.27;;;8.48;;
14933;SDS011;7560;51.364;12.384;2023-06-10T23:53:15;15.32;;;9.13;;
14933;SDS011;7560;51.364;12.384;2023-06-10T23:58:17;9.80;;;8.40;;
